Impacts METAR Board INFO
IDs:

KDHN - Dothan Rgnl, AL, US

Updated at: 1136 UTC 24 Feb 2018
Potential Impact None Slight Moderate High
Time23/23Z 24/00Z 24/01Z 24/02Z 24/03Z 24/04Z 24/05Z 24/06Z 24/07Z 24/08Z 24/09Z 24/10Z 24/11Z
VIS10 10 10 10 10 10 10 10 10 8 7 3 6
CIG120 50 43 41 -- -- -- -- -- -- -- -- --
CoverBKNOVCOVCOVCFEWCLRCLRCLRCLRCLRCLRFEWSCT
FltCatVFRVFRVFRVFRVFRVFRVFRVFRVFRVFRVFRMVFRVFR
WX-------RA---------------RA BRBR
WDir140160190200230170180160000140130
WSpd6 6 4 4 4 5 4 4 0 0 0 4 7
WGst-- -- -- -- -- -- -- -- -- -- -- -- --
Raw hourly METARs
KDHN 232253Z 14006KT 10SM FEW060 SCT070 BKN120 26/16 A3027 RMK AO2 SLP246 T02560161
KDHN 232353Z 16006KT 10SM BKN050 OVC075 24/16 A3027 RMK AO2 SLP247 T02440161 10283 20244 55003
KDHN 240053Z 19004KT 10SM FEW035 BKN043 OVC050 23/19 A3029 RMK AO2 RAB02E49 SLP252 P0019 T02280189
KDHN 240153Z 20004KT 10SM -RA OVC041 22/17 A3030 RMK AO2 RAB41 SLP255 P0000 T02220172
KDHN 240253Z AUTO 23004KT 10SM FEW049 21/16 A3029 RMK AO2 RAE0157 SLP253 P0000 60019 T02110161 50006
KDHN 240353Z AUTO 17005KT 10SM CLR 19/16 A3028 RMK AO2 SLP251 T01890156
KDHN 240453Z AUTO 18004KT 10SM CLR 19/15 A3027 RMK AO2 SLP246 T01890150 402830150
KDHN 240553Z AUTO 16004KT 10SM CLR 18/15 A3026 RMK AO2 SLP243 60019 T01780150 10244 20178 58009
KDHN 240653Z AUTO 00000KT 10SM CLR 17/16 A3025 RMK AO2 SLP240 T01720156
KDHN 240753Z AUTO 00000KT 8SM CLR 16/14 A3024 RMK AO2 SLP236 T01560139
KDHN 240853Z AUTO 00000KT 7SM CLR 16/14 A3022 RMK AO2 SLP230 T01560144 58014
KDHN 241000Z AUTO 14004KT 3SM -RA BR FEW060 15/14 A3022 RMK AO2 RAB0959 P0000 T01500139
KDHN 241053Z AUTO 13007KT 6SM BR SCT055 16/14 A3023 RMK AO2 RAB0959E17 SLP233 P0000 T01560144